sensor_id;sensor_type;location;lat;lon;timestamp;P1;durP1;ratioP1;P2;durP2;ratioP2
14474;SDS011;7323;50.848;4.334;2024-03-23T00:55:41;9.73;;;3.53;;
14474;SDS011;7323;50.848;4.334;2024-03-23T00:58:08;7.80;;;3.57;;
14474;SDS011;7323;50.848;4.334;2024-03-23T01:00:34;13.87;;;4.17;;
14474;SDS011;7323;50.848;4.334;2024-03-23T01:02:59;10.70;;;4.00;;
14474;SDS011;7323;50.848;4.334;2024-03-23T01:05:25;10.27;;;4.87;;
14474;SDS011;7323;50.848;4.334;2024-03-23T01:07:51;10.63;;;4.00;;
14474;SDS011;7323;50.848;4.334;2024-03-23T01:10:17;10.33;;;3.73;;
14474;SDS011;7323;50.848;4.334;2024-03-23T01:12:42;8.93;;;3.07;;
14474;SDS011;7323;50.848;4.334;2024-03-23T01:15:08;7.67;;;3.27;;
14474;SDS011;7323;50.848;4.334;2024-03-23T01:17:34;5.63;;;2.80;;
14474;SDS011;7323;50.848;4.334;2024-03-23T01:20:00;8.97;;;3.33;;
14474;SDS011;7323;50.848;4.334;2024-03-23T01:22:25;10.60;;;3.57;;
14474;SDS011;7323;50.848;4.334;2024-03-23T01:24:51;10.03;;;3.47;;
14474;SDS011;7323;50.848;4.334;2024-03-23T01:27:17;13.93;;;4.20;;
14474;SDS011;7323;50.848;4.334;2024-03-23T01:29:43;9.63;;;4.37;;
14474;SDS011;7323;50.848;4.334;2024-03-23T01:32:09;12.23;;;3.93;;
14474;SDS011;7323;50.848;4.334;2024-03-23T01:34:34;10.77;;;4.00;;
14474;SDS011;7323;50.848;4.334;2024-03-23T01:37:00;8.57;;;3.97;;
14474;SDS011;7323;50.848;4.334;2024-03-23T01:39:26;10.13;;;4.57;;
14474;SDS011;7323;50.848;4.334;2024-03-23T01:41:52;10.53;;;4.70;;
14474;SDS011;7323;50.848;4.334;2024-03-23T01:44:17;9.27;;;4.53;;
14474;SDS011;7323;50.848;4.334;2024-03-23T01:46:43;8.43;;;4.57;;
14474;SDS011;7323;50.848;4.334;2024-03-23T01:49:09;8.63;;;5.53;;
14474;SDS011;7323;50.848;4.334;2024-03-23T01:51:36;8.70;;;5.00;;
14474;SDS011;7323;50.848;4.334;2024-03-23T01:54:02;12.97;;;5.00;;
14474;SDS011;7323;50.848;4.334;2024-03-23T01:56:31;13.23;;;6.00;;
14474;SDS011;7323;50.848;4.334;2024-03-23T01:59:04;11.00;;;5.63;;
14474;SDS011;7323;50.848;4.334;2024-03-23T02:01:31;10.07;;;5.70;;
14474;SDS011;7323;50.848;4.334;2024-03-23T02:03:57;10.37;;;6.03;;
14474;SDS011;7323;50.848;4.334;2024-03-23T02:06:26;13.77;;;6.27;;
14474;SDS011;7323;50.848;4.334;2024-03-23T02:08:53;11.90;;;5.80;;
14474;SDS011;7323;50.848;4.334;2024-03-23T02:11:20;13.83;;;6.87;;
14474;SDS011;7323;50.848;4.334;2024-03-23T02:13:45;9.93;;;5.97;;
14474;SDS011;7323;50.848;4.334;2024-03-23T02:16:11;11.57;;;6.80;;
14474;SDS011;7323;50.848;4.334;2024-03-23T02:18:38;10.40;;;6.70;;
14474;SDS011;7323;50.848;4.334;2024-03-23T02:21:04;15.33;;;6.90;;
14474;SDS011;7323;50.848;4.334;2024-03-23T02:23:30;15.30;;;7.57;;
14474;SDS011;7323;50.848;4.334;2024-03-23T02:25:55;17.07;;;8.43;;
14474;SDS011;7323;50.848;4.334;2024-03-23T02:28:21;15.70;;;8.30;;
14474;SDS011;7323;50.848;4.334;2024-03-23T02:30:51;16.03;;;8.83;;
14474;SDS011;7323;50.848;4.334;2024-03-23T02:33:17;19.87;;;9.73;;
14474;SDS011;7323;50.848;4.334;2024-03-23T02:35:43;18.50;;;9.50;;
14474;SDS011;7323;50.848;4.334;2024-03-23T02:38:10;22.53;;;10.73;;
14474;SDS011;7323;50.848;4.334;2024-03-23T02:40:35;19.57;;;10.37;;
14474;SDS011;7323;50.848;4.334;2024-03-23T02:43:02;21.43;;;10.90;;
14474;SDS011;7323;50.848;4.334;2024-03-23T02:45:28;20.30;;;10.97;;
14474;SDS011;7323;50.848;4.334;2024-03-23T02:47:54;19.40;;;10.17;;
14474;SDS011;7323;50.848;4.334;2024-03-23T02:50:20;19.77;;;10.50;;
14474;SDS011;7323;50.848;4.334;2024-03-23T02:52:47;21.93;;;11.47;;
14474;SDS011;7323;50.848;4.334;2024-03-23T02:55:13;18.73;;;11.33;;
14474;SDS011;7323;50.848;4.334;2024-03-23T02:57:39;24.10;;;12.23;;
14474;SDS011;7323;50.848;4.334;2024-03-23T03:00:05;18.87;;;11.50;;
14474;SDS011;7323;50.848;4.334;2024-03-23T03:02:32;24.50;;;12.63;;
14474;SDS011;7323;50.848;4.334;2024-03-23T03:04:58;22.73;;;12.10;;
14474;SDS011;7323;50.848;4.334;2024-03-23T03:07:24;19.10;;;12.13;;
14474;SDS011;7323;50.848;4.334;2024-03-23T03:09:49;22.50;;;11.60;;
14474;SDS011;7323;50.848;4.334;2024-03-23T03:12:16;21.50;;;12.10;;
14474;SDS011;7323;50.848;4.334;2024-03-23T03:14:42;20.13;;;12.10;;
14474;SDS011;7323;50.848;4.334;2024-03-23T03:17:08;22.63;;;11.73;;
14474;SDS011;7323;50.848;4.334;2024-03-23T03:19:34;21.83;;;11.20;;
14474;SDS011;7323;50.848;4.334;2024-03-23T03:21:59;22.73;;;10.97;;
14474;SDS011;7323;50.848;4.334;2024-03-23T03:24:25;21.33;;;10.70;;
14474;SDS011;7323;50.848;4.334;2024-03-23T03:26:51;20.00;;;10.83;;
14474;SDS011;7323;50.848;4.334;2024-03-23T03:29:17;20.97;;;10.83;;
14474;SDS011;7323;50.848;4.334;2024-03-23T03:31:42;22.33;;;11.10;;
14474;SDS011;7323;50.848;4.334;2024-03-23T03:34:09;16.73;;;10.93;;
14474;SDS011;7323;50.848;4.334;2024-03-23T03:36:34;25.60;;;11.03;;
14474;SDS011;7323;50.848;4.334;2024-03-23T03:39:00;17.77;;;10.77;;
14474;SDS011;7323;50.848;4.334;2024-03-23T03:41:28;26.53;;;11.00;;
14474;SDS011;7323;50.848;4.334;2024-03-23T03:43:54;22.57;;;11.33;;
14474;SDS011;7323;50.848;4.334;2024-03-23T03:46:20;27.53;;;12.37;;
14474;SDS011;7323;50.848;4.334;2024-03-23T03:48:46;22.93;;;10.83;;
14474;SDS011;7323;50.848;4.334;2024-03-23T03:51:13;22.90;;;11.30;;
14474;SDS011;7323;50.848;4.334;2024-03-23T03:53:39;22.97;;;11.30;;
14474;SDS011;7323;50.848;4.334;2024-03-23T03:56:05;17.07;;;11.50;;
14474;SDS011;7323;50.848;4.334;2024-03-23T03:58:30;22.20;;;11.00;;
14474;SDS011;7323;50.848;4.334;2024-03-23T04:00:56;20.33;;;11.50;;
14474;SDS011;7323;50.848;4.334;2024-03-23T04:03:22;22.50;;;12.87;;
14474;SDS011;7323;50.848;4.334;2024-03-23T04:05:54;21.53;;;11.83;;
14474;SDS011;7323;50.848;4.334;2024-03-23T04:08:20;24.17;;;12.27;;
14474;SDS011;7323;50.848;4.334;2024-03-23T04:10:46;21.53;;;11.03;;
14474;SDS011;7323;50.848;4.334;2024-03-23T04:13:12;16.83;;;9.97;;
14474;SDS011;7323;50.848;4.334;2024-03-23T04:15:38;19.73;;;9.50;;
14474;SDS011;7323;50.848;4.334;2024-03-23T04:18:04;19.17;;;8.93;;
14474;SDS011;7323;50.848;4.334;2024-03-23T04:20:30;18.37;;;8.30;;
14474;SDS011;7323;50.848;4.334;2024-03-23T04:22:57;14.57;;;8.90;;
14474;SDS011;7323;50.848;4.334;2024-03-23T04:25:23;17.97;;;7.80;;
14474;SDS011;7323;50.848;4.334;2024-03-23T04:27:49;15.43;;;7.70;;
14474;SDS011;7323;50.848;4.334;2024-03-23T04:30:15;15.63;;;7.23;;
14474;SDS011;7323;50.848;4.334;2024-03-23T04:32:41;14.47;;;7.07;;
14474;SDS011;7323;50.848;4.334;2024-03-23T04:35:07;15.70;;;6.60;;
14474;SDS011;7323;50.848;4.334;2024-03-23T04:37:36;15.30;;;7.03;;
14474;SDS011;7323;50.848;4.334;2024-03-23T04:40:02;16.03;;;7.47;;
14474;SDS011;7323;50.848;4.334;2024-03-23T04:42:29;12.97;;;6.13;;
14474;SDS011;7323;50.848;4.334;2024-03-23T04:44:57;13.83;;;6.27;;
14474;SDS011;7323;50.848;4.334;2024-03-23T04:47:22;14.60;;;6.30;;
14474;SDS011;7323;50.848;4.334;2024-03-23T04:49:48;16.67;;;7.00;;
14474;SDS011;7323;50.848;4.334;2024-03-23T04:52:14;13.67;;;6.70;;
14474;SDS011;7323;50.848;4.334;2024-03-23T04:54:40;13.80;;;7.10;;
14474;SDS011;7323;50.848;4.334;2024-03-23T04:57:06;15.00;;;6.80;;
14474;SDS011;7323;50.848;4.334;2024-03-23T04:59:32;12.43;;;6.90;;
14474;SDS011;7323;50.848;4.334;2024-03-23T05:01:58;14.27;;;6.90;;
14474;SDS011;7323;50.848;4.334;2024-03-23T05:04:25;17.17;;;7.10;;
14474;SDS011;7323;50.848;4.334;2024-03-23T05:06:51;12.03;;;6.77;;
14474;SDS011;7323;50.848;4.334;2024-03-23T05:09:17;14.90;;;7.30;;
14474;SDS011;7323;50.848;4.334;2024-03-23T05:11:43;15.00;;;7.63;;
14474;SDS011;7323;50.848;4.334;2024-03-23T05:14:08;14.90;;;7.97;;
14474;SDS011;7323;50.848;4.334;2024-03-23T05:16:34;14.77;;;7.97;;
14474;SDS011;7323;50.848;4.334;2024-03-23T05:19:00;13.33;;;7.37;;
14474;SDS011;7323;50.848;4.334;2024-03-23T05:21:26;16.60;;;7.77;;
14474;SDS011;7323;50.848;4.334;2024-03-23T05:23:55;13.20;;;8.30;;
14474;SDS011;7323;50.848;4.334;2024-03-23T05:26:21;16.07;;;7.87;;
14474;SDS011;7323;50.848;4.334;2024-03-23T05:28:48;12.77;;;7.63;;
14474;SDS011;7323;50.848;4.334;2024-03-23T05:31:22;14.83;;;7.37;;
14474;SDS011;7323;50.848;4.334;2024-03-23T05:33:51;14.03;;;7.70;;
14474;SDS011;7323;50.848;4.334;2024-03-23T05:36:17;16.23;;;7.07;;
14474;SDS011;7323;50.848;4.334;2024-03-23T05:38:43;16.53;;;6.97;;
14474;SDS011;7323;50.848;4.334;2024-03-23T05:41:09;14.07;;;5.83;;
14474;SDS011;7323;50.848;4.334;2024-03-23T05:43:35;14.20;;;6.50;;
14474;SDS011;7323;50.848;4.334;2024-03-23T05:46:01;12.70;;;5.60;;
14474;SDS011;7323;50.848;4.334;2024-03-23T05:48:27;14.10;;;5.33;;
14474;SDS011;7323;50.848;4.334;2024-03-23T05:50:55;13.17;;;5.27;;
14474;SDS011;7323;50.848;4.334;2024-03-23T05:53:21;12.00;;;4.37;;
14474;SDS011;7323;50.848;4.334;2024-03-23T05:55:46;13.40;;;4.90;;
14474;SDS011;7323;50.848;4.334;2024-03-23T05:58:15;14.23;;;4.47;;
14474;SDS011;7323;50.848;4.334;2024-03-23T06:00:42;14.63;;;4.73;;
14474;SDS011;7323;50.848;4.334;2024-03-23T06:03:08;11.50;;;4.30;;
14474;SDS011;7323;50.848;4.334;2024-03-23T06:05:35;14.53;;;4.70;;
14474;SDS011;7323;50.848;4.334;2024-03-23T06:08:01;10.13;;;3.83;;
14474;SDS011;7323;50.848;4.334;2024-03-23T06:10:27;13.90;;;4.30;;
14474;SDS011;7323;50.848;4.334;2024-03-23T06:12:53;12.23;;;3.83;;
14474;SDS011;7323;50.848;4.334;2024-03-23T06:15:19;11.73;;;4.27;;
14474;SDS011;7323;50.848;4.334;2024-03-23T06:17:45;13.70;;;4.27;;
14474;SDS011;7323;50.848;4.334;2024-03-23T06:20:12;11.00;;;3.93;;
14474;SDS011;7323;50.848;4.334;2024-03-23T06:22:37;10.73;;;4.00;;
14474;SDS011;7323;50.848;4.334;2024-03-23T06:25:03;12.83;;;4.33;;
14474;SDS011;7323;50.848;4.334;2024-03-23T06:27:29;11.60;;;3.63;;
14474;SDS011;7323;50.848;4.334;2024-03-23T06:29:57;7.73;;;2.93;;
14474;SDS011;7323;50.848;4.334;2024-03-23T06:32:27;15.13;;;3.97;;
14474;SDS011;7323;50.848;4.334;2024-03-23T06:34:54;14.23;;;3.37;;
14474;SDS011;7323;50.848;4.334;2024-03-23T06:37:20;10.87;;;3.73;;
14474;SDS011;7323;50.848;4.334;2024-03-23T06:39:46;13.13;;;3.87;;
14474;SDS011;7323;50.848;4.334;2024-03-23T06:42:12;10.27;;;3.20;;
14474;SDS011;7323;50.848;4.334;2024-03-23T06:44:38;13.43;;;3.97;;
14474;SDS011;7323;50.848;4.334;2024-03-23T06:47:04;12.13;;;3.73;;
14474;SDS011;7323;50.848;4.334;2024-03-23T06:49:30;13.47;;;3.03;;
14474;SDS011;7323;50.848;4.334;2024-03-23T06:51:56;11.23;;;3.77;;
14474;SDS011;7323;50.848;4.334;2024-03-23T06:54:21;10.57;;;4.50;;
14474;SDS011;7323;50.848;4.334;2024-03-23T06:56:47;8.93;;;3.20;;
14474;SDS011;7323;50.848;4.334;2024-03-23T06:59:13;12.67;;;3.57;;
14474;SDS011;7323;50.848;4.334;2024-03-23T07:01:38;13.07;;;3.47;;
14474;SDS011;7323;50.848;4.334;2024-03-23T07:04:04;10.43;;;3.40;;
14474;SDS011;7323;50.848;4.334;2024-03-23T07:06:30;9.57;;;2.40;;
14474;SDS011;7323;50.848;4.334;2024-03-23T07:08:56;6.17;;;2.37;;
14474;SDS011;7323;50.848;4.334;2024-03-23T07:11:22;8.37;;;2.40;;
14474;SDS011;7323;50.848;4.334;2024-03-23T07:13:52;6.50;;;2.40;;
14474;SDS011;7323;50.848;4.334;2024-03-23T07:16:21;8.70;;;2.90;;
14474;SDS011;7323;50.848;4.334;2024-03-23T07:18:47;6.97;;;3.13;;
14474;SDS011;7323;50.848;4.334;2024-03-23T07:21:15;10.47;;;3.20;;
14474;SDS011;7323;50.848;4.334;2024-03-23T07:23:44;7.53;;;3.50;;
14474;SDS011;7323;50.848;4.334;2024-03-23T07:26:10;14.50;;;3.93;;
14474;SDS011;7323;50.848;4.334;2024-03-23T07:28:36;8.07;;;3.33;;
14474;SDS011;7323;50.848;4.334;2024-03-23T07:33:36;12.03;;;3.93;;
14474;SDS011;7323;50.848;4.334;2024-03-23T07:36:06;10.33;;;4.13;;
14474;SDS011;7323;50.848;4.334;2024-03-23T07:38:32;12.47;;;3.40;;
14474;SDS011;7323;50.848;4.334;2024-03-23T07:41:07;11.87;;;3.60;;
14474;SDS011;7323;50.848;4.334;2024-03-23T07:43:34;12.50;;;4.33;;
14474;SDS011;7323;50.848;4.334;2024-03-23T07:46:01;11.40;;;4.00;;
14474;SDS011;7323;50.848;4.334;2024-03-23T07:48:28;13.20;;;3.63;;
14474;SDS011;7323;50.848;4.334;2024-03-23T07:50:58;9.53;;;3.70;;
14474;SDS011;7323;50.848;4.334;2024-03-23T07:53:30;11.77;;;3.87;;
14474;SDS011;7323;50.848;4.334;2024-03-23T07:55:57;11.60;;;3.40;;
14474;SDS011;7323;50.848;4.334;2024-03-23T07:58:24;12.33;;;4.17;;
14474;SDS011;7323;50.848;4.334;2024-03-23T08:00:51;12.40;;;4.40;;
14474;SDS011;7323;50.848;4.334;2024-03-23T08:03:18;9.30;;;3.67;;
14474;SDS011;7323;50.848;4.334;2024-03-23T08:05:43;10.27;;;3.30;;
14474;SDS011;7323;50.848;4.334;2024-03-23T08:08:09;12.90;;;4.23;;
14474;SDS011;7323;50.848;4.334;2024-03-23T08:10:36;12.03;;;3.60;;
14474;SDS011;7323;50.848;4.334;2024-03-23T08:13:22;10.03;;;3.67;;
14474;SDS011;7323;50.848;4.334;2024-03-23T08:15:47;12.87;;;3.83;;
14474;SDS011;7323;50.848;4.334;2024-03-23T08:18:13;10.83;;;3.80;;
14474;SDS011;7323;50.848;4.334;2024-03-23T08:20:40;8.23;;;3.23;;
14474;SDS011;7323;50.848;4.334;2024-03-23T08:23:06;14.27;;;3.80;;
14474;SDS011;7323;50.848;4.334;2024-03-23T08:25:33;15.43;;;3.67;;
14474;SDS011;7323;50.848;4.334;2024-03-23T08:27:59;11.03;;;3.30;;
14474;SDS011;7323;50.848;4.334;2024-03-23T08:30:25;9.83;;;3.30;;
14474;SDS011;7323;50.848;4.334;2024-03-23T08:32:50;9.30;;;2.47;;
14474;SDS011;7323;50.848;4.334;2024-03-23T08:35:16;11.30;;;3.40;;
14474;SDS011;7323;50.848;4.334;2024-03-23T08:37:43;10.60;;;3.20;;
14474;SDS011;7323;50.848;4.334;2024-03-23T08:40:08;11.07;;;3.30;;
14474;SDS011;7323;50.848;4.334;2024-03-23T08:42:34;13.67;;;4.10;;
14474;SDS011;7323;50.848;4.334;2024-03-23T08:45:00;9.73;;;3.37;;
14474;SDS011;7323;50.848;4.334;2024-03-23T08:47:26;7.63;;;3.07;;
14474;SDS011;7323;50.848;4.334;2024-03-23T08:49:52;6.87;;;2.83;;
14474;SDS011;7323;50.848;4.334;2024-03-23T08:52:17;12.23;;;2.80;;
14474;SDS011;7323;50.848;4.334;2024-03-23T08:54:43;9.93;;;2.70;;
14474;SDS011;7323;50.848;4.334;2024-03-23T08:57:09;7.40;;;2.73;;
14474;SDS011;7323;50.848;4.334;2024-03-23T08:59:35;11.13;;;3.77;;
14474;SDS011;7323;50.848;4.334;2024-03-23T09:02:02;10.87;;;3.13;;
14474;SDS011;7323;50.848;4.334;2024-03-23T09:04:28;7.67;;;2.70;;
14474;SDS011;7323;50.848;4.334;2024-03-23T09:06:53;9.80;;;2.80;;
14474;SDS011;7323;50.848;4.334;2024-03-23T09:09:19;9.50;;;2.50;;
14474;SDS011;7323;50.848;4.334;2024-03-23T09:11:45;7.73;;;2.73;;
14474;SDS011;7323;50.848;4.334;2024-03-23T09:14:10;6.73;;;2.27;;
14474;SDS011;7323;50.848;4.334;2024-03-23T09:16:36;7.73;;;3.07;;
14474;SDS011;7323;50.848;4.334;2024-03-23T09:19:02;9.17;;;3.10;;
14474;SDS011;7323;50.848;4.334;2024-03-23T09:21:28;8.60;;;2.80;;
14474;SDS011;7323;50.848;4.334;2024-03-23T09:23:53;10.37;;;3.10;;
14474;SDS011;7323;50.848;4.334;2024-03-23T09:26:19;10.17;;;3.33;;
14474;SDS011;7323;50.848;4.334;2024-03-23T09:28:47;9.50;;;2.90;;
14474;SDS011;7323;50.848;4.334;2024-03-23T09:31:14;9.40;;;3.27;;
14474;SDS011;7323;50.848;4.334;2024-03-23T09:33:40;7.97;;;3.57;;
14474;SDS011;7323;50.848;4.334;2024-03-23T09:36:07;6.33;;;2.73;;
14474;SDS011;7323;50.848;4.334;2024-03-23T09:38:33;7.87;;;3.07;;
14474;SDS011;7323;50.848;4.334;2024-03-23T09:40:59;12.00;;;4.17;;
14474;SDS011;7323;50.848;4.334;2024-03-23T09:43:25;10.50;;;3.17;;
14474;SDS011;7323;50.848;4.334;2024-03-23T09:45:51;6.03;;;2.70;;
14474;SDS011;7323;50.848;4.334;2024-03-23T09:48:18;6.80;;;2.97;;
14474;SDS011;7323;50.848;4.334;2024-03-23T09:50:44;7.23;;;3.00;;
14474;SDS011;7323;50.848;4.334;2024-03-23T09:53:11;5.53;;;2.87;;
14474;SDS011;7323;50.848;4.334;2024-03-23T09:55:38;5.37;;;3.07;;
14474;SDS011;7323;50.848;4.334;2024-03-23T09:58:05;4.73;;;2.57;;
14474;SDS011;7323;50.848;4.334;2024-03-23T10:00:32;9.73;;;3.20;;
14474;SDS011;7323;50.848;4.334;2024-03-23T10:02:58;6.00;;;2.67;;
14474;SDS011;7323;50.848;4.334;2024-03-23T10:05:27;8.10;;;2.87;;
14474;SDS011;7323;50.848;4.334;2024-03-23T10:07:53;6.27;;;3.00;;
14474;SDS011;7323;50.848;4.334;2024-03-23T10:10:19;6.50;;;2.90;;
14474;SDS011;7323;50.848;4.334;2024-03-23T10:12:49;5.77;;;2.70;;
14474;SDS011;7323;50.848;4.334;2024-03-23T10:17:52;5.00;;;2.67;;
14474;SDS011;7323;50.848;4.334;2024-03-23T10:20:19;7.90;;;2.53;;
14474;SDS011;7323;50.848;4.334;2024-03-23T10:22:47;7.87;;;2.70;;
14474;SDS011;7323;50.848;4.334;2024-03-23T10:25:14;6.50;;;2.40;;
14474;SDS011;7323;50.848;4.334;2024-03-23T10:27:40;6.77;;;2.40;;
14474;SDS011;7323;50.848;4.334;2024-03-23T10:30:11;9.00;;;2.50;;
14474;SDS011;7323;50.848;4.334;2024-03-23T10:32:40;5.57;;;1.83;;
14474;SDS011;7323;50.848;4.334;2024-03-23T10:35:18;7.40;;;2.57;;
14474;SDS011;7323;50.848;4.334;2024-03-23T10:37:48;4.63;;;1.80;;
14474;SDS011;7323;50.848;4.334;2024-03-23T10:40:17;7.67;;;2.13;;
14474;SDS011;7323;50.848;4.334;2024-03-23T10:42:44;7.90;;;1.90;;
14474;SDS011;7323;50.848;4.334;2024-03-23T10:45:10;7.83;;;2.37;;
14474;SDS011;7323;50.848;4.334;2024-03-23T10:47:36;4.97;;;1.53;;
14474;SDS011;7323;50.848;4.334;2024-03-23T10:50:05;5.40;;;1.90;;
14474;SDS011;7323;50.848;4.334;2024-03-23T10:52:34;5.53;;;1.80;;
14474;SDS011;7323;50.848;4.334;2024-03-23T10:55:02;8.27;;;2.37;;
14474;SDS011;7323;50.848;4.334;2024-03-23T10:57:38;7.07;;;2.20;;
14474;SDS011;7323;50.848;4.334;2024-03-23T11:00:08;6.50;;;2.03;;
14474;SDS011;7323;50.848;4.334;2024-03-23T11:02:35;7.30;;;1.93;;
14474;SDS011;7323;50.848;4.334;2024-03-23T11:05:01;6.87;;;1.43;;
14474;SDS011;7323;50.848;4.334;2024-03-23T11:09:59;5.17;;;1.93;;
14474;SDS011;7323;50.848;4.334;2024-03-23T11:12:26;2.23;;;1.10;;
14474;SDS011;7323;50.848;4.334;2024-03-23T11:15:00;2.87;;;1.23;;
14474;SDS011;7323;50.848;4.334;2024-03-23T11:17:30;3.33;;;1.07;;
14474;SDS011;7323;50.848;4.334;2024-03-23T11:19:57;5.90;;;1.70;;
14474;SDS011;7323;50.848;4.334;2024-03-23T11:27:51;7.07;;;1.60;;
14474;SDS011;7323;50.848;4.334;2024-03-23T11:32:47;5.93;;;1.93;;
14474;SDS011;7323;50.848;4.334;2024-03-23T11:35:27;7.03;;;1.57;;
14474;SDS011;7323;50.848;4.334;2024-03-23T11:40:42;5.73;;;1.93;;
14474;SDS011;7323;50.848;4.334;2024-03-23T11:43:13;5.83;;;1.83;;
14474;SDS011;7323;50.848;4.334;2024-03-23T11:45:47;4.80;;;1.60;;
14474;SDS011;7323;50.848;4.334;2024-03-23T11:48:18;6.83;;;1.93;;
14474;SDS011;7323;50.848;4.334;2024-03-23T11:50:46;5.47;;;1.93;;
14474;SDS011;7323;50.848;4.334;2024-03-23T11:53:13;4.47;;;1.80;;
14474;SDS011;7323;50.848;4.334;2024-03-23T11:55:47;5.80;;;2.03;;
14474;SDS011;7323;50.848;4.334;2024-03-23T11:58:15;3.77;;;1.30;;
14474;SDS011;7323;50.848;4.334;2024-03-23T12:01:00;5.80;;;1.63;;
14474;SDS011;7323;50.848;4.334;2024-03-23T12:03:28;4.63;;;1.70;;
14474;SDS011;7323;50.848;4.334;2024-03-23T12:06:03;3.90;;;1.23;;
14474;SDS011;7323;50.848;4.334;2024-03-23T12:08:31;3.47;;;1.33;;
14474;SDS011;7323;50.848;4.334;2024-03-23T12:11:13;6.50;;;2.00;;
14474;SDS011;7323;50.848;4.334;2024-03-23T12:13:41;2.53;;;1.40;;
14474;SDS011;7323;50.848;4.334;2024-03-23T12:18:43;6.77;;;1.60;;
14474;SDS011;7323;50.848;4.334;2024-03-23T12:21:10;4.33;;;1.50;;
14474;SDS011;7323;50.848;4.334;2024-03-23T12:23:38;2.60;;;1.10;;
14474;SDS011;7323;50.848;4.334;2024-03-23T12:26:05;3.83;;;1.33;;
14474;SDS011;7323;50.848;4.334;2024-03-23T12:28:31;2.77;;;1.00;;
14474;SDS011;7323;50.848;4.334;2024-03-23T12:30:57;5.33;;;1.33;;
14474;SDS011;7323;50.848;4.334;2024-03-23T12:33:23;6.63;;;1.53;;
14474;SDS011;7323;50.848;4.334;2024-03-23T12:35:52;4.07;;;1.30;;
14474;SDS011;7323;50.848;4.334;2024-03-23T12:38:19;3.80;;;1.40;;
14474;SDS011;7323;50.848;4.334;2024-03-23T12:40:48;5.90;;;1.97;;
14474;SDS011;7323;50.848;4.334;2024-03-23T12:43:15;4.93;;;1.50;;
14474;SDS011;7323;50.848;4.334;2024-03-23T12:45:45;5.73;;;1.77;;
14474;SDS011;7323;50.848;4.334;2024-03-23T12:48:15;6.03;;;2.00;;
14474;SDS011;7323;50.848;4.334;2024-03-23T12:50:41;5.83;;;1.57;;
14474;SDS011;7323;50.848;4.334;2024-03-23T12:53:06;4.40;;;1.73;;
14474;SDS011;7323;50.848;4.334;2024-03-23T12:55:34;4.40;;;1.77;;
14474;SDS011;7323;50.848;4.334;2024-03-23T12:58:00;7.13;;;1.50;;
14474;SDS011;7323;50.848;4.334;2024-03-23T13:00:26;4.57;;;1.10;;
14474;SDS011;7323;50.848;4.334;2024-03-23T13:02:52;3.87;;;1.27;;
14474;SDS011;7323;50.848;4.334;2024-03-23T13:05:18;4.37;;;1.63;;
14474;SDS011;7323;50.848;4.334;2024-03-23T13:07:44;2.50;;;1.10;;
14474;SDS011;7323;50.848;4.334;2024-03-23T13:10:09;4.37;;;1.10;;
14474;SDS011;7323;50.848;4.334;2024-03-23T13:12:35;6.40;;;1.43;;
14474;SDS011;7323;50.848;4.334;2024-03-23T13:15:01;4.83;;;1.43;;
14474;SDS011;7323;50.848;4.334;2024-03-23T13:17:27;3.27;;;1.37;;
14474;SDS011;7323;50.848;4.334;2024-03-23T13:19:53;2.57;;;1.30;;
14474;SDS011;7323;50.848;4.334;2024-03-23T13:22:20;2.57;;;1.00;;
14474;SDS011;7323;50.848;4.334;2024-03-23T13:24:46;5.63;;;1.37;;
14474;SDS011;7323;50.848;4.334;2024-03-23T13:27:12;4.00;;;1.00;;
14474;SDS011;7323;50.848;4.334;2024-03-23T13:29:38;6.77;;;1.47;;
14474;SDS011;7323;50.848;4.334;2024-03-23T13:32:04;7.40;;;1.60;;
14474;SDS011;7323;50.848;4.334;2024-03-23T13:34:31;3.67;;;1.43;;
14474;SDS011;7323;50.848;4.334;2024-03-23T13:36:56;7.10;;;1.20;;
14474;SDS011;7323;50.848;4.334;2024-03-23T13:39:25;5.17;;;1.23;;
14474;SDS011;7323;50.848;4.334;2024-03-23T13:41:53;3.67;;;1.13;;
14474;SDS011;7323;50.848;4.334;2024-03-23T13:44:20;4.57;;;1.73;;
14474;SDS011;7323;50.848;4.334;2024-03-23T13:46:46;4.97;;;1.57;;
14474;SDS011;7323;50.848;4.334;2024-03-23T13:49:28;3.77;;;1.60;;
14474;SDS011;7323;50.848;4.334;2024-03-23T13:51:55;7.07;;;1.50;;
14474;SDS011;7323;50.848;4.334;2024-03-23T13:54:25;4.70;;;1.17;;
14474;SDS011;7323;50.848;4.334;2024-03-23T13:56:51;5.10;;;1.40;;
14474;SDS011;7323;50.848;4.334;2024-03-23T13:59:18;5.70;;;1.57;;
14474;SDS011;7323;50.848;4.334;2024-03-23T14:01:44;5.97;;;1.60;;
14474;SDS011;7323;50.848;4.334;2024-03-23T14:04:13;2.70;;;1.20;;
14474;SDS011;7323;50.848;4.334;2024-03-23T14:06:41;4.23;;;1.50;;
14474;SDS011;7323;50.848;4.334;2024-03-23T14:09:10;3.40;;;1.37;;
14474;SDS011;7323;50.848;4.334;2024-03-23T14:11:36;4.40;;;1.77;;
14474;SDS011;7323;50.848;4.334;2024-03-23T14:14:02;5.73;;;1.63;;
14474;SDS011;7323;50.848;4.334;2024-03-23T14:16:29;3.57;;;1.40;;
14474;SDS011;7323;50.848;4.334;2024-03-23T14:18:55;3.13;;;1.40;;
14474;SDS011;7323;50.848;4.334;2024-03-23T14:21:21;3.57;;;1.60;;
14474;SDS011;7323;50.848;4.334;2024-03-23T14:23:47;3.60;;;1.57;;
14474;SDS011;7323;50.848;4.334;2024-03-23T14:26:12;5.23;;;1.43;;
14474;SDS011;7323;50.848;4.334;2024-03-23T14:28:38;6.20;;;1.60;;
14474;SDS011;7323;50.848;4.334;2024-03-23T14:31:04;5.27;;;1.60;;
14474;SDS011;7323;50.848;4.334;2024-03-23T14:33:35;8.33;;;1.80;;
14474;SDS011;7323;50.848;4.334;2024-03-23T14:36:02;5.30;;;2.17;;
14474;SDS011;7323;50.848;4.334;2024-03-23T14:38:29;4.70;;;1.63;;
14474;SDS011;7323;50.848;4.334;2024-03-23T14:40:57;2.97;;;1.53;;
14474;SDS011;7323;50.848;4.334;2024-03-23T14:43:28;4.50;;;1.40;;
14474;SDS011;7323;50.848;4.334;2024-03-23T14:48:53;4.80;;;1.70;;
14474;SDS011;7323;50.848;4.334;2024-03-23T14:51:19;6.20;;;1.50;;
14474;SDS011;7323;50.848;4.334;2024-03-23T14:53:47;6.10;;;1.57;;
14474;SDS011;7323;50.848;4.334;2024-03-23T14:56:13;4.93;;;1.63;;
14474;SDS011;7323;50.848;4.334;2024-03-23T14:58:41;4.57;;;1.50;;
14474;SDS011;7323;50.848;4.334;2024-03-23T15:01:07;5.93;;;1.80;;
14474;SDS011;7323;50.848;4.334;2024-03-23T15:03:37;5.50;;;1.83;;
14474;SDS011;7323;50.848;4.334;2024-03-23T15:06:04;4.13;;;1.60;;
14474;SDS011;7323;50.848;4.334;2024-03-23T15:08:30;5.57;;;2.37;;
14474;SDS011;7323;50.848;4.334;2024-03-23T15:10:59;5.47;;;2.13;;
14474;SDS011;7323;50.848;4.334;2024-03-23T15:13:30;4.00;;;1.70;;
14474;SDS011;7323;50.848;4.334;2024-03-23T15:15:57;4.53;;;1.60;;
14474;SDS011;7323;50.848;4.334;2024-03-23T15:18:22;8.50;;;2.13;;
14474;SDS011;7323;50.848;4.334;2024-03-23T15:20:51;5.80;;;2.10;;
14474;SDS011;7323;50.848;4.334;2024-03-23T15:23:18;5.77;;;2.07;;
14474;SDS011;7323;50.848;4.334;2024-03-23T15:25:43;5.57;;;1.80;;
14474;SDS011;7323;50.848;4.334;2024-03-23T15:28:09;4.57;;;1.83;;
14474;SDS011;7323;50.848;4.334;2024-03-23T15:30:35;4.20;;;1.60;;
14474;SDS011;7323;50.848;4.334;2024-03-23T15:33:00;4.70;;;1.60;;
14474;SDS011;7323;50.848;4.334;2024-03-23T15:35:27;7.00;;;1.77;;
14474;SDS011;7323;50.848;4.334;2024-03-23T15:37:53;7.00;;;1.80;;
14474;SDS011;7323;50.848;4.334;2024-03-23T15:40:18;5.97;;;1.90;;
14474;SDS011;7323;50.848;4.334;2024-03-23T15:42:44;5.83;;;1.97;;
14474;SDS011;7323;50.848;4.334;2024-03-23T15:45:10;5.47;;;2.10;;
14474;SDS011;7323;50.848;4.334;2024-03-23T15:47:36;5.83;;;2.07;;
14474;SDS011;7323;50.848;4.334;2024-03-23T15:50:02;4.83;;;1.80;;
14474;SDS011;7323;50.848;4.334;2024-03-23T15:52:34;6.73;;;2.13;;
14474;SDS011;7323;50.848;4.334;2024-03-23T15:55:01;5.17;;;1.70;;
14474;SDS011;7323;50.848;4.334;2024-03-23T15:57:30;6.57;;;1.70;;
14474;SDS011;7323;50.848;4.334;2024-03-23T15:59:57;9.20;;;2.03;;
14474;SDS011;7323;50.848;4.334;2024-03-23T16:02:23;7.13;;;1.80;;
14474;SDS011;7323;50.848;4.334;2024-03-23T16:04:48;5.60;;;1.50;;
14474;SDS011;7323;50.848;4.334;2024-03-23T16:07:14;7.50;;;1.87;;
14474;SDS011;7323;50.848;4.334;2024-03-23T16:09:40;4.90;;;1.97;;